Time;durP1;ratioP1;P1;durP2;ratioP2;P2;SDS_P1;SDS_P2;PMS_P1;PMS_P2;Temp;Humidity;BMP_temperature;BMP_pressure;BME280_temperature;BME280_humidity;BME280_pressure;Samples;Min_cycle;Max_cycle;Signal;HPM_P1;HPM_P2
2022/11/26 00:00:27;;;;;;;;;;;18.30;46.70;17.00;102034.00;;;;5046445;28;19954;-76
2022/11/26 00:02:53;;;;;;;;;;;18.30;46.70;17.00;102038.00;;;;5044694;28;20293;-76
2022/11/26 00:05:19;;;;;;;;;;;18.30;46.70;17.00;102049.00;;;;5061796;28;19994;-76
2022/11/26 00:07:54;;;;;;;;;;;18.30;46.70;17.00;102047.00;;;;5041844;28;19975;-76
2022/11/26 00:10:22;;;;;;;;;;;18.30;46.70;17.00;102055.00;;;;5048602;28;20401;-76
2022/11/26 00:12:48;;;;;;;;;;;18.30;46.70;17.00;102053.00;;;;5052367;28;19920;-76
2022/11/26 00:15:16;;;;;;;;;;;18.30;46.70;17.00;102053.00;;;;5066866;28;20286;-76
2022/11/26 00:17:42;;;;;;;;;;;18.30;46.70;17.00;102056.00;;;;5049614;28;19922;-76
2022/11/26 00:20:07;;;;;;;;;;;18.20;46.60;17.00;102064.00;;;;5064075;28;19916;-76
2022/11/26 00:22:39;;;;;;;;;;;18.20;46.60;17.00;102057.00;;;;5064668;28;19908;-76
2022/11/26 00:25:05;;;;;;;;;;;18.20;46.70;17.00;102061.00;;;;5051795;28;19919;-76
2022/11/26 00:27:30;;;;;;;;;;;18.20;46.60;17.00;102067.00;;;;5050673;28;19916;-75
2022/11/26 00:29:56;;;;;;;;;;;18.30;46.70;17.00;102074.00;;;;5064444;28;20282;-76
2022/11/26 00:32:23;;;;;;;;;;;18.20;46.60;17.00;102066.00;;;;5062640;28;19916;-76
2022/11/26 00:34:49;;;;;;;;;;;18.20;46.60;16.90;102068.00;;;;5040456;28;19916;-75
2022/11/26 00:37:47;;;;;;;;;;;18.20;46.60;17.00;102070.00;;;;5065499;28;20402;-76
2022/11/26 00:40:18;;;;;;;;;;;18.20;46.60;17.00;102071.00;;;;5063072;28;19916;-75
2022/11/26 00:42:43;;;;;;;;;;;18.20;46.60;16.90;102077.00;;;;5047694;28;19909;-76
2022/11/26 00:45:14;;;;;;;;;;;18.20;46.60;16.90;102075.00;;;;5048503;28;19920;-76
2022/11/26 00:47:40;;;;;;;;;;;18.20;46.60;16.90;102083.00;;;;5026506;28;20286;-76
2022/11/26 00:50:07;;;;;;;;;;;18.20;46.60;16.90;102076.00;;;;5062837;28;19923;-76
2022/11/26 00:52:33;;;;;;;;;;;18.20;46.60;16.90;102084.00;;;;5059922;28;19913;-76
2022/11/26 00:55:00;;;;;;;;;;;18.20;46.50;16.90;102081.00;;;;5062172;28;20365;-75
2022/11/26 00:57:26;;;;;;;;;;;18.10;46.50;16.90;102084.00;;;;5063041;28;19916;-76
2022/11/26 00:59:51;;;;;;;;;;;18.20;46.50;16.90;102083.00;;;;5046133;28;19966;-76
2022/11/26 01:02:17;;;;;;;;;;;18.20;46.60;16.90;102090.00;;;;5063447;28;19924;-76
2022/11/26 01:04:43;;;;;;;;;;;18.20;46.50;16.90;102094.00;;;;5058380;28;19928;-76
2022/11/26 01:07:09;;;;;;;;;;;18.10;46.40;16.90;102109.00;;;;5061004;28;19920;-76
2022/11/26 01:09:34;;;;;;;;;;;18.30;46.50;16.90;102116.00;;;;5062501;28;20217;-76
2022/11/26 01:12:00;;;;;;;;;;;18.10;46.40;16.90;102118.00;;;;5038552;28;19912;-76
2022/11/26 01:14:26;;;;;;;;;;;18.20;46.50;16.90;102120.00;;;;5043980;28;19913;-76
2022/11/26 01:16:52;;;;;;;;;;;18.10;46.40;16.90;102129.00;;;;5063409;28;19912;-76
2022/11/26 01:19:17;;;;;;;;;;;18.20;46.50;16.90;102125.00;;;;5047764;28;20058;-76
2022/11/26 01:21:43;;;;;;;;;;;18.20;46.50;16.90;102129.00;;;;5063842;28;20331;-76
2022/11/26 01:24:09;;;;;;;;;;;18.20;46.50;16.90;102135.00;;;;5063040;28;19920;-76
2022/11/26 01:26:39;;;;;;;;;;;18.10;46.40;16.90;102136.00;;;;5037402;28;19916;-76
2022/11/26 01:29:05;;;;;;;;;;;18.10;46.40;16.90;102143.00;;;;5048745;28;19927;-76
2022/11/26 01:31:31;;;;;;;;;;;18.10;46.40;16.90;102148.00;;;;5061760;28;19943;-76
2022/11/26 01:33:57;;;;;;;;;;;18.10;46.40;16.90;102149.00;;;;5039675;28;19913;-76
2022/11/26 01:36:36;;;;;;;;;;;18.20;46.40;16.90;102150.00;;;;5059943;28;20251;-76
2022/11/26 01:39:03;;;;;;;;;;;18.10;46.40;16.90;102150.00;;;;5048367;28;20336;-76
2022/11/26 01:41:29;;;;;;;;;;;18.10;46.40;16.90;102145.00;;;;5044128;28;19952;-75
2022/11/26 01:43:55;;;;;;;;;;;18.10;46.40;16.90;102152.00;;;;5057915;28;19917;-76
2022/11/26 01:46:21;;;;;;;;;;;18.10;46.40;16.90;102162.00;;;;5049807;28;19916;-75
2022/11/26 01:48:47;;;;;;;;;;;18.10;46.40;16.80;102164.00;;;;5061455;28;20282;-75
2022/11/26 01:51:14;;;;;;;;;;;18.10;46.30;16.90;102160.00;;;;5063007;28;19920;-75
2022/11/26 01:54:05;;;;;;;;;;;18.10;46.40;16.80;102166.00;;;;5063209;28;19916;-76
2022/11/26 01:56:34;;;;;;;;;;;18.10;46.30;16.80;102164.00;;;;5048084;28;19912;-76
2022/11/26 01:59:05;;;;;;;;;;;18.10;46.30;16.80;102161.00;;;;5043752;28;19919;-76
2022/11/26 02:01:31;;;;;;;;;;;18.10;46.30;16.80;102163.00;;;;5041000;28;20345;-76
2022/11/26 02:03:58;;;;;;;;;;;18.10;46.40;16.80;102160.00;;;;5059652;28;20003;-76
2022/11/26 02:06:28;;;;;;;;;;;18.00;46.30;16.80;102166.00;;;;5048672;28;19939;-76
2022/11/26 02:08:54;;;;;;;;;;;18.10;46.30;16.80;102169.00;;;;5042548;28;20493;-76
2022/11/26 02:11:21;;;;;;;;;;;18.00;46.30;16.80;102175.00;;;;5048416;28;19916;-76
2022/11/26 02:13:47;;;;;;;;;;;18.00;46.30;16.80;102169.00;;;;5045856;28;19919;-76
2022/11/26 02:16:32;;;;;;;;;;;18.00;46.30;16.80;102166.00;;;;5048912;28;20028;-76
2022/11/26 02:19:39;;;;;;;;;;;18.00;46.30;16.80;102170.00;;;;5049497;28;20361;-76
2022/11/26 02:22:17;;;;;;;;;;;18.00;46.30;16.70;102178.00;;;;5064130;28;19912;-76
2022/11/26 02:25:00;;;;;;;;;;;18.00;46.30;16.70;102184.00;;;;5062933;28;19919;-76
2022/11/26 02:27:29;;;;;;;;;;;18.00;46.30;16.70;102192.00;;;;5049296;28;19974;-76
2022/11/26 02:30:24;;;;;;;;;;;18.00;46.30;16.70;102190.00;;;;5064381;28;20275;-76
2022/11/26 02:33:17;;;;;;;;;;;18.00;46.30;16.70;102180.00;;;;5047422;28;20313;-76
2022/11/26 02:35:48;;;;;;;;;;;17.90;46.20;16.70;102183.00;;;;5031337;28;19913;-76
2022/11/26 02:38:19;;;;;;;;;;;18.00;46.30;16.70;102193.00;;;;5044578;28;19912;-76
2022/11/26 02:40:45;;;;;;;;;;;17.90;46.20;16.70;102185.00;;;;5048118;28;20286;-76
2022/11/26 02:43:10;;;;;;;;;;;17.90;46.90;16.70;102177.00;;;;5066813;28;19908;-76
2022/11/26 02:45:37;;;;;;;;;;;17.90;46.20;16.70;102185.00;;;;5042660;28;20289;-76
2022/11/26 02:48:05;;;;;;;;;;;17.90;46.20;16.70;102186.00;;;;5063903;28;19916;-76
2022/11/26 02:50:39;;;;;;;;;;;17.90;46.20;16.70;102178.00;;;;5046682;28;20350;-76
2022/11/26 02:53:05;;;;;;;;;;;17.90;46.20;16.70;102189.00;;;;5039619;28;19919;-75
2022/11/26 02:55:33;;;;;;;;;;;17.90;46.20;16.70;102188.00;;;;5046376;28;19912;-76
2022/11/26 02:57:59;;;;;;;;;;;17.90;46.20;16.70;102192.00;;;;5042731;28;20116;-75
2022/11/26 03:00:25;;;;;;;;;;;17.90;46.20;16.70;102190.00;;;;5045440;28;19916;-76
2022/11/26 03:02:59;;;;;;;;;;;17.90;46.20;16.70;102184.00;;;;5061495;28;19928;-76
2022/11/26 03:05:24;;;;;;;;;;;17.90;46.10;16.70;102176.00;;;;5059640;28;19927;-75
2022/11/26 03:07:50;;;;;;;;;;;17.90;46.20;16.70;102180.00;;;;5040847;28;19913;-76
2022/11/26 03:10:19;;;;;;;;;;;17.80;46.10;16.60;102181.00;;;;5047322;28;19966;-76
2022/11/26 03:12:45;;;;;;;;;;;17.90;46.10;16.70;102181.00;;;;5044096;28;19917;-75
2022/11/26 03:15:10;;;;;;;;;;;17.90;46.10;16.70;102188.00;;;;5061760;28;20289;-76
2022/11/26 03:17:36;;;;;;;;;;;18.00;46.20;16.60;102179.00;;;;5040911;28;19959;-75
2022/11/26 03:20:02;;;;;;;;;;;17.90;46.10;16.60;102188.00;;;;5060919;28;19913;-75
2022/11/26 03:22:28;;;;;;;;;;;17.90;46.80;16.60;102188.00;;;;5062990;28;19917;-76
2022/11/26 03:24:54;;;;;;;;;;;17.90;46.10;16.60;102196.00;;;;5063623;28;20058;-75
2022/11/26 03:27:19;;;;;;;;;;;17.90;46.10;16.70;102191.00;;;;5056376;28;20211;-76
2022/11/26 03:29:45;;;;;;;;;;;17.90;46.10;16.60;102188.00;;;;5061553;28;20328;-75
2022/11/26 03:32:11;;;;;;;;;;;17.90;46.10;16.60;102192.00;;;;5039847;28;19915;-75
2022/11/26 03:34:36;;;;;;;;;;;17.90;46.00;16.60;102197.00;;;;5065453;28;19971;-76
2022/11/26 03:37:02;;;;;;;;;;;17.90;46.00;16.60;102190.00;;;;5062935;28;19923;-75
2022/11/26 03:39:28;;;;;;;;;;;17.80;46.00;16.60;102201.00;;;;5061028;28;19930;-76
2022/11/26 03:41:53;;;;;;;;;;;17.90;46.00;16.60;102206.00;;;;5058731;28;19935;-75
2022/11/26 03:44:19;;;;;;;;;;;17.80;46.00;16.60;102210.00;;;;5064988;28;19913;-76
2022/11/26 03:46:45;;;;;;;;;;;17.80;46.00;16.60;102211.00;;;;5060926;28;20393;-76
2022/11/26 03:49:10;;;;;;;;;;;17.90;46.00;16.60;102204.00;;;;5064283;28;19928;-76
2022/11/26 03:51:36;;;;;;;;;;;17.80;45.90;16.60;102208.00;;;;5063305;28;19912;-76
2022/11/26 03:54:02;;;;;;;;;;;17.90;46.00;16.60;102206.00;;;;5064035;28;19913;-76
2022/11/26 03:56:28;;;;;;;;;;;17.80;46.00;16.60;102216.00;;;;5062306;28;19913;-76
2022/11/26 03:58:53;;;;;;;;;;;17.90;46.00;16.60;102222.00;;;;5061731;28;19969;-76
2022/11/26 04:01:19;;;;;;;;;;;18.00;46.10;16.60;102219.00;;;;5064686;28;19916;-76
2022/11/26 04:03:45;;;;;;;;;;;17.90;46.00;16.60;102219.00;;;;5062241;28;20331;-76
2022/11/26 04:06:10;;;;;;;;;;;17.80;46.00;16.60;102231.00;;;;5061499;28;19913;-76
2022/11/26 04:08:36;;;;;;;;;;;17.80;45.90;16.60;102228.00;;;;5065309;28;19912;-76
2022/11/26 04:11:02;;;;;;;;;;;17.80;45.90;16.60;102235.00;;;;5065747;28;20286;-76
2022/11/26 04:13:27;;;;;;;;;;;17.80;45.90;16.60;102238.00;;;;5048696;28;19913;-76
2022/11/26 04:15:53;;;;;;;;;;;17.80;45.90;16.60;102249.00;;;;5063214;28;19913;-76
2022/11/26 04:18:19;;;;;;;;;;;17.80;45.90;16.60;102248.00;;;;5064643;28;20282;-76
2022/11/26 04:20:44;;;;;;;;;;;17.90;46.00;16.60;102250.00;;;;5064376;28;19924;-76
2022/11/26 04:23:10;;;;;;;;;;;17.90;46.00;16.60;102255.00;;;;5063068;28;19912;-75
2022/11/26 04:25:36;;;;;;;;;;;18.00;46.10;16.60;102259.00;;;;5047545;28;20342;-76
2022/11/26 04:28:01;;;;;;;;;;;17.90;46.00;16.60;102253.00;;;;5044758;28;19912;-76
2022/11/26 04:30:27;;;;;;;;;;;17.80;45.90;16.60;102268.00;;;;5061698;28;19923;-75
2022/11/26 04:32:53;;;;;;;;;;;17.80;45.90;16.60;102271.00;;;;5062511;28;19947;-76
2022/11/26 04:35:18;;;;;;;;;;;17.80;45.90;16.60;102272.00;;;;5065018;28;19919;-76
2022/11/26 04:37:44;;;;;;;;;;;17.80;46.00;16.60;102277.00;;;;5040868;28;20171;-76
2022/11/26 04:40:10;;;;;;;;;;;17.80;46.00;16.60;102270.00;;;;5045994;28;19919;-76
2022/11/26 04:42:36;;;;;;;;;;;17.80;46.00;16.60;102282.00;;;;5059140;28;19912;-76
2022/11/26 04:45:02;;;;;;;;;;;17.90;46.00;16.60;102278.00;;;;5067534;28;19912;-76
2022/11/26 04:47:27;;;;;;;;;;;17.90;46.10;16.60;102275.00;;;;5042816;28;19912;-75
2022/11/26 04:49:53;;;;;;;;;;;17.80;46.00;16.60;102289.00;;;;5060076;28;19924;-76
2022/11/26 04:52:19;;;;;;;;;;;17.80;46.00;16.60;102287.00;;;;5061900;28;19920;-76
2022/11/26 04:54:44;;;;;;;;;;;17.90;46.10;16.60;102295.00;;;;5041545;28;20385;-76
2022/11/26 04:57:10;;;;;;;;;;;17.80;46.00;16.60;102298.00;;;;5062108;28;19916;-76
2022/11/26 04:59:36;;;;;;;;;;;17.90;46.80;16.60;102307.00;;;;5060603;28;20297;-76
2022/11/26 05:02:01;;;;;;;;;;;17.80;46.00;16.60;102306.00;;;;5065239;28;19958;-76
2022/11/26 05:04:27;;;;;;;;;;;17.90;46.10;16.60;102308.00;;;;5061504;28;19965;-76
2022/11/26 05:06:53;;;;;;;;;;;17.90;46.10;16.60;102311.00;;;;5062506;28;19967;-76
2022/11/26 05:09:19;;;;;;;;;;;17.80;46.00;16.60;102319.00;;;;5060968;28;20404;-76
2022/11/26 05:11:45;;;;;;;;;;;17.90;46.10;16.60;102319.00;;;;5064053;28;20530;-76
2022/11/26 05:14:10;;;;;;;;;;;17.90;46.10;16.60;102321.00;;;;5066064;28;20416;-76
2022/11/26 05:16:36;;;;;;;;;;;17.80;46.00;16.60;102324.00;;;;5065857;28;19919;-76
2022/11/26 05:19:02;;;;;;;;;;;17.90;46.10;16.60;102324.00;;;;5060058;28;19912;-76
2022/11/26 05:21:27;;;;;;;;;;;18.00;46.10;16.60;102327.00;;;;5048797;28;20497;-76
2022/11/26 05:23:53;;;;;;;;;;;17.90;46.10;16.60;102323.00;;;;5059612;28;19923;-76
2022/11/26 05:26:19;;;;;;;;;;;17.90;46.00;16.60;102324.00;;;;5065294;28;19912;-76
2022/11/26 05:28:44;;;;;;;;;;;17.90;46.80;16.60;102330.00;;;;5061894;28;20437;-76
2022/11/26 05:31:10;;;;;;;;;;;17.90;46.10;16.60;102330.00;;;;5062077;28;19974;-76
2022/11/26 05:33:36;;;;;;;;;;;17.90;46.00;16.60;102340.00;;;;5058211;28;20279;-76
2022/11/26 05:36:02;;;;;;;;;;;17.90;46.10;16.60;102328.00;;;;5025338;28;1051136;-75
2022/11/26 05:38:28;;;;;;;;;;;17.90;46.00;16.60;102341.00;;;;5047506;28;20175;-76
2022/11/26 05:40:53;;;;;;;;;;;17.90;46.10;16.60;102333.00;;;;5045445;28;19912;-76
2022/11/26 05:43:19;;;;;;;;;;;17.90;46.00;16.60;102334.00;;;;5046019;28;20269;-76
2022/11/26 05:45:45;;;;;;;;;;;17.90;46.10;16.60;102330.00;;;;5061888;28;19920;-76
2022/11/26 05:48:10;;;;;;;;;;;17.90;46.00;16.60;102337.00;;;;5061827;28;20286;-76
2022/11/26 05:50:36;;;;;;;;;;;17.90;46.00;16.60;102339.00;;;;5045781;28;19916;-76
2022/11/26 05:53:02;;;;;;;;;;;17.90;46.00;16.60;102342.00;;;;5062600;28;19912;-76
2022/11/26 05:55:27;;;;;;;;;;;17.90;46.00;16.60;102349.00;;;;5049401;28;20396;-76
2022/11/26 05:57:53;;;;;;;;;;;17.90;46.00;16.60;102351.00;;;;5063832;28;19920;-76
2022/11/26 06:00:19;;;;;;;;;;;17.90;46.10;16.60;102350.00;;;;5065810;28;19924;-76
2022/11/26 06:02:44;;;;;;;;;;;17.90;46.00;16.60;102351.00;;;;5063104;28;19921;-77
2022/11/26 06:05:11;;;;;;;;;;;17.90;46.00;16.60;102353.00;;;;5060214;28;20531;-76
2022/11/26 06:07:37;;;;;;;;;;;18.00;46.10;16.60;102359.00;;;;5045840;28;19928;-75
2022/11/26 06:10:03;;;;;;;;;;;17.90;46.00;16.60;102357.00;;;;5063539;28;20362;-76
2022/11/26 06:12:28;;;;;;;;;;;17.90;46.00;16.60;102360.00;;;;5045265;28;19917;-76
2022/11/26 06:14:54;;;;;;;;;;;17.80;45.90;16.60;102353.00;;;;5065708;28;19922;-76
2022/11/26 06:17:20;;;;;;;;;;;18.00;46.10;16.60;102355.00;;;;5063079;28;19913;-76
2022/11/26 06:19:45;;;;;;;;;;;17.90;46.00;16.60;102355.00;;;;5063388;28;20358;-76
2022/11/26 06:22:11;;;;;;;;;;;18.00;46.10;16.60;102361.00;;;;5063208;28;20256;-76
2022/11/26 06:24:37;;;;;;;;;;;17.90;46.00;16.60;102373.00;;;;5064280;28;19927;-77
2022/11/26 06:27:03;;;;;;;;;;;17.90;46.00;16.60;102367.00;;;;5065333;28;19916;-76
2022/11/26 06:29:28;;;;;;;;;;;17.80;45.90;16.60;102374.00;;;;5048756;28;19916;-76
2022/11/26 06:31:54;;;;;;;;;;;17.90;46.00;16.60;102373.00;;;;5065347;28;19912;-76
2022/11/26 06:34:19;;;;;;;;;;;18.00;46.10;16.60;102374.00;;;;5060348;28;20400;-76
2022/11/26 06:36:45;;;;;;;;;;;17.90;46.00;16.60;102377.00;;;;5060162;28;19916;-76
2022/11/26 06:39:11;;;;;;;;;;;17.90;46.00;16.60;102389.00;;;;5063470;28;19912;-76
2022/11/26 06:41:37;;;;;;;;;;;17.90;46.00;16.60;102389.00;;;;5061761;28;19966;-76
2022/11/26 06:44:02;;;;;;;;;;;17.90;46.00;16.60;102388.00;;;;5034867;28;20390;-76
2022/11/26 06:46:28;;;;;;;;;;;17.90;46.00;16.60;102395.00;;;;5050987;28;19916;-76
2022/11/26 06:48:54;;;;;;;;;;;17.90;46.10;16.60;102394.00;;;;5061310;28;19966;-76
2022/11/26 06:51:20;;;;;;;;;;;17.80;46.00;16.60;102389.00;;;;5062465;28;20535;-76
2022/11/26 06:53:49;;;;;;;;;;;17.90;46.00;16.60;102381.00;;;;5061694;28;19921;-75
2022/11/26 06:56:15;;;;;;;;;;;17.90;46.10;16.60;102388.00;;;;5044295;28;20152;-75
2022/11/26 06:58:41;;;;;;;;;;;17.90;46.00;16.60;102391.00;;;;5064583;28;19912;-76
2022/11/26 07:01:08;;;;;;;;;;;17.80;46.00;16.60;102385.00;;;;5065471;28;19912;-76
2022/11/26 07:03:33;;;;;;;;;;;17.80;46.00;16.60;102386.00;;;;5064044;28;20258;-76
2022/11/26 07:05:59;;;;;;;;;;;17.90;46.10;16.60;102396.00;;;;5058724;28;19920;-76
2022/11/26 07:08:25;;;;;;;;;;;17.90;46.00;16.60;102395.00;;;;5060231;28;20526;-76
2022/11/26 07:10:50;;;;;;;;;;;17.80;46.00;16.60;102390.00;;;;5064694;28;20350;-76
2022/11/26 07:13:16;;;;;;;;;;;17.90;46.00;16.60;102400.00;;;;5063795;28;19912;-76
2022/11/26 07:15:42;;;;;;;;;;;17.80;46.00;16.60;102401.00;;;;5063232;28;20129;-76
2022/11/26 07:18:07;;;;;;;;;;;18.00;46.10;16.60;102404.00;;;;5059410;28;19913;-76
2022/11/26 07:20:34;;;;;;;;;;;17.90;46.00;16.60;102406.00;;;;5060398;28;19916;-76
2022/11/26 07:23:01;;;;;;;;;;;17.80;46.00;16.60;102407.00;;;;5059568;28;19943;-76
2022/11/26 07:25:28;;;;;;;;;;;17.90;46.00;16.60;102411.00;;;;5065894;28;19947;-76
2022/11/26 07:27:54;;;;;;;;;;;17.80;46.00;16.60;102408.00;;;;5058919;28;19927;-75
2022/11/26 07:30:19;;;;;;;;;;;18.00;46.10;16.60;102414.00;;;;5061685;28;19924;-76
2022/11/26 07:32:45;;;;;;;;;;;17.90;46.10;16.60;102416.00;;;;5061650;28;19912;-75
2022/11/26 07:35:11;;;;;;;;;;;17.80;46.00;16.60;102418.00;;;;5061890;28;19962;-75
2022/11/26 07:37:36;;;;;;;;;;;17.80;46.00;16.60;102423.00;;;;5063445;28;19917;-75
2022/11/26 07:40:03;;;;;;;;;;;17.80;46.00;16.60;102424.00;;;;5065289;28;19912;-75
2022/11/26 07:42:31;;;;;;;;;;;17.80;46.00;16.60;102416.00;;;;5064439;28;20007;-75
2022/11/26 07:44:56;;;;;;;;;;;17.90;46.00;16.60;102423.00;;;;5046024;28;19948;-75
2022/11/26 07:47:22;;;;;;;;;;;17.90;46.00;16.60;102419.00;;;;5063718;28;20258;-75
2022/11/26 07:49:48;;;;;;;;;;;17.90;46.00;16.60;102420.00;;;;5062149;28;19920;-75
2022/11/26 07:52:13;;;;;;;;;;;17.90;46.00;16.60;102426.00;;;;5065007;28;19940;-76
2022/11/26 07:54:39;;;;;;;;;;;17.80;46.00;16.60;102425.00;;;;5060797;28;19912;-75
2022/11/26 07:57:05;;;;;;;;;;;17.90;46.00;16.60;102434.00;;;;5063693;28;19928;-75
2022/11/26 07:59:30;;;;;;;;;;;17.90;46.00;16.60;102432.00;;;;5046687;28;19912;-75
2022/11/26 08:01:56;;;;;;;;;;;17.90;46.00;16.60;102434.00;;;;5065094;28;19913;-76
2022/11/26 08:04:22;;;;;;;;;;;17.90;46.00;16.60;102434.00;;;;5063593;28;19936;-76
2022/11/26 08:06:47;;;;;;;;;;;17.90;46.00;16.60;102441.00;;;;5063149;28;19916;-76
2022/11/26 08:09:13;;;;;;;;;;;17.90;46.10;16.60;102451.00;;;;5063150;28;19924;-75
2022/11/26 08:11:39;;;;;;;;;;;17.80;46.00;16.60;102448.00;;;;5060404;28;19924;-75
2022/11/26 08:14:11;;;;;;;;;;;17.90;46.10;16.60;102450.00;;;;5064801;28;19942;-75
2022/11/26 08:16:37;;;;;;;;;;;17.90;46.10;16.60;102447.00;;;;5049295;28;19912;-75
2022/11/26 08:19:09;;;;;;;;;;;17.80;46.00;16.60;102455.00;;;;5065472;28;19924;-75
2022/11/26 08:21:35;;;;;;;;;;;17.90;46.10;16.60;102461.00;;;;5046550;28;19920;-75
2022/11/26 08:24:02;;;;;;;;;;;17.80;46.10;16.60;102462.00;;;;5063350;28;19916;-75
2022/11/26 08:26:28;;;;;;;;;;;17.80;46.10;16.60;102471.00;;;;5064914;28;19927;-75
2022/11/26 08:28:53;;;;;;;;;;;17.90;46.20;16.60;102465.00;;;;5063281;28;19913;-75
2022/11/26 08:31:19;;;;;;;;;;;17.90;46.20;16.60;102466.00;;;;5066157;28;19958;-75
2022/11/26 08:33:45;;;;;;;;;;;17.90;46.20;16.60;102471.00;;;;5049096;28;19916;-75
2022/11/26 08:36:11;;;;;;;;;;;17.90;46.20;16.60;102476.00;;;;5066441;28;19928;-75
2022/11/26 08:38:36;;;;;;;;;;;17.90;46.20;16.60;102478.00;;;;5052052;28;19912;-75
2022/11/26 08:41:03;;;;;;;;;;;17.90;46.20;16.60;102484.00;;;;5050227;28;19913;-75
2022/11/26 08:43:29;;;;;;;;;;;18.00;46.30;16.60;102492.00;;;;5068320;28;19948;-75
2022/11/26 08:45:56;;;;;;;;;;;18.00;46.30;16.60;102480.00;;;;5046466;28;20292;-75
2022/11/26 08:48:22;;;;;;;;;;;17.90;46.30;16.60;102474.00;;;;5068412;28;19935;-75
2022/11/26 08:50:48;;;;;;;;;;;17.90;46.20;16.60;102475.00;;;;5049371;28;19916;-75
2022/11/26 08:53:14;;;;;;;;;;;17.90;46.20;16.60;102473.00;;;;5051308;28;19923;-75
2022/11/26 08:55:39;;;;;;;;;;;17.90;46.20;16.60;102472.00;;;;5067612;28;19923;-75
2022/11/26 08:58:05;;;;;;;;;;;17.90;46.20;16.60;102467.00;;;;5064092;28;19931;-75
2022/11/26 09:00:31;;;;;;;;;;;18.00;46.30;16.60;102469.00;;;;5067040;28;19916;-76
2022/11/26 09:02:56;;;;;;;;;;;17.90;46.20;16.60;102471.00;;;;5049674;28;20255;-76
2022/11/26 09:05:22;;;;;;;;;;;17.90;46.10;16.60;102473.00;;;;5065145;28;19912;-75
2022/11/26 09:07:48;;;;;;;;;;;17.80;46.10;16.60;102468.00;;;;5067506;28;19954;-75
2022/11/26 09:10:13;;;;;;;;;;;17.90;46.10;16.60;102473.00;;;;5067010;28;19920;-76
2022/11/26 09:12:39;;;;;;;;;;;17.80;46.00;16.60;102471.00;;;;5067755;28;19908;-77
2022/11/26 09:15:05;;;;;;;;;;;17.90;46.10;16.50;102477.00;;;;5065453;28;19920;-79
2022/11/26 09:17:31;;;;;;;;;;;17.90;46.00;16.50;102478.00;;;;5068533;28;19993;-79
2022/11/26 09:19:57;;;;;;;;;;;17.80;45.80;16.40;102473.00;;;;5067894;28;19923;-78
2022/11/26 09:22:22;;;;;;;;;;;17.80;45.70;16.20;102486.00;;;;5067166;28;19920;-79
2022/11/26 09:24:48;;;;;;;;;;;17.80;45.60;16.10;102489.00;;;;5050005;28;20495;-79
2022/11/26 09:27:14;;;;;;;;;;;17.70;45.50;16.00;102493.00;;;;5067363;28;19924;-79
2022/11/26 09:29:39;;;;;;;;;;;17.60;45.50;15.90;102490.00;;;;5065957;28;19913;-79
2022/11/26 09:32:08;;;;;;;;;;;17.60;45.50;15.80;102494.00;;;;5047404;28;19924;-78
2022/11/26 09:34:34;;;;;;;;;;;17.30;45.50;15.70;102492.00;;;;5065831;28;20416;-78
2022/11/26 09:37:00;;;;;;;;;;;17.30;45.50;15.60;102493.00;;;;5066314;28;20053;-77
2022/11/26 09:39:25;;;;;;;;;;;17.20;45.60;15.60;102492.00;;;;5063413;28;19916;-77
2022/11/26 09:42:04;;;;;;;;;;;17.10;45.70;15.60;102497.00;;;;5063512;28;19916;-78
2022/11/26 09:44:35;;;;;;;;;;;17.00;45.90;15.60;102514.00;;;;5043734;28;19954;-77
2022/11/26 09:47:15;;;;;;;;;;;16.90;46.00;15.60;102514.00;;;;5050707;28;20425;-77
2022/11/26 09:49:46;;;;;;;;;;;16.90;46.10;15.50;102519.00;;;;5065327;28;19955;-76
2022/11/26 09:52:12;;;;;;;;;;;16.90;46.20;15.50;102526.00;;;;5062514;28;19958;-76
2022/11/26 09:54:38;;;;;;;;;;;16.70;46.10;15.40;102514.00;;;;5065020;28;20300;-76
2022/11/26 09:57:28;;;;;;;;;;;16.80;46.20;15.40;102516.00;;;;5045254;28;19913;-77
2022/11/26 09:59:54;;;;;;;;;;;16.70;46.30;15.40;102514.00;;;;5057539;28;19912;-77
2022/11/26 10:02:19;;;;;;;;;;;16.70;46.40;15.50;102520.00;;;;5046595;28;19918;-77
2022/11/26 10:04:45;;;;;;;;;;;16.60;46.50;15.50;102513.00;;;;5063328;28;19913;-77
2022/11/26 10:07:43;;;;;;;;;;;16.70;46.70;15.60;102517.00;;;;5062878;28;19923;-77
2022/11/26 10:10:23;;;;;;;;;;;16.60;46.70;15.60;102527.00;;;;5064457;28;20262;-75
2022/11/26 10:12:58;;;;;;;;;;;16.70;46.90;15.60;102523.00;;;;5059943;28;19917;-76
2022/11/26 10:15:30;;;;;;;;;;;16.80;46.90;15.60;102519.00;;;;5060463;28;19920;-76
2022/11/26 10:18:18;;;;;;;;;;;16.80;47.10;15.50;102520.00;;;;5046396;28;20044;-76
2022/11/26 10:21:02;;;;;;;;;;;16.80;47.10;15.40;102518.00;;;;5034052;28;19912;-77
2022/11/26 10:23:32;;;;;;;;;;;16.70;46.90;15.40;102513.00;;;;5063115;28;20392;-76
2022/11/26 10:26:22;;;;;;;;;;;16.70;46.80;15.40;102513.00;;;;5047296;28;20041;-76
